sensor_id;sensor_type;location;lat;lon;timestamp;pressure;altitude;pressure_sealevel;temperature;humidity
56052;BME280;41919;42.648;23.384;2022-09-17T00:01:44;93713.22;;;17.58;88.53
56052;BME280;41919;42.648;23.384;2022-09-17T00:04:09;93758.31;;;18.13;88.00
56052;BME280;41919;42.648;23.384;2022-09-17T00:06:35;93757.25;;;18.09;88.03
56052;BME280;41919;42.648;23.384;2022-09-17T00:09:02;93779.25;;;17.94;89.60
56052;BME280;41919;42.648;23.384;2022-09-17T00:11:30;93742.50;;;17.87;89.38
56052;BME280;41919;42.648;23.384;2022-09-17T00:13:58;93776.06;;;17.81;89.99
56052;BME280;41919;42.648;23.384;2022-09-17T00:16:30;93701.34;;;17.55;90.08
56052;BME280;41919;42.648;23.384;2022-09-17T00:18:56;93759.13;;;17.93;88.56
56052;BME280;41919;42.648;23.384;2022-09-17T00:21:22;93696.06;;;17.50;88.77
56052;BME280;41919;42.648;23.384;2022-09-17T00:23:52;93694.19;;;17.56;88.76
56052;BME280;41919;42.648;23.384;2022-09-17T00:26:18;93742.50;;;17.92;87.79
56052;BME280;41919;42.648;23.384;2022-09-17T00:28:43;93755.44;;;17.99;86.67
56052;BME280;41919;42.648;23.384;2022-09-17T00:31:12;93740.34;;;18.05;86.61
56052;BME280;41919;42.648;23.384;2022-09-17T00:33:38;93731.63;;;18.04;86.65
56052;BME280;41919;42.648;23.384;2022-09-17T00:36:05;93738.75;;;18.03;86.24
56052;BME280;41919;42.648;23.384;2022-09-17T00:38:31;93695.50;;;17.69;86.71
56052;BME280;41919;42.648;23.384;2022-09-17T00:40:57;93678.88;;;17.68;86.98
56052;BME280;41919;42.648;23.384;2022-09-17T00:43:43;93748.34;;;17.84;87.58
56052;BME280;41919;42.648;23.384;2022-09-17T00:46:25;93748.06;;;17.75;88.73
56052;BME280;41919;42.648;23.384;2022-09-17T00:48:53;93687.59;;;17.58;88.32
56052;BME280;41919;42.648;23.384;2022-09-17T00:51:26;93756.03;;;17.50;91.03
56052;BME280;41919;42.648;23.384;2022-09-17T00:53:54;93706.13;;;17.38;90.92
56052;BME280;41919;42.648;23.384;2022-09-17T00:56:24;93750.16;;;17.78;90.47
56052;BME280;41919;42.648;23.384;2022-09-17T00:58:51;93739.34;;;17.80;90.55
56052;BME280;41919;42.648;23.384;2022-09-17T01:01:18;93790.06;;;17.82;90.46
56052;BME280;41919;42.648;23.384;2022-09-17T01:03:44;93766.03;;;17.83;90.33
56052;BME280;41919;42.648;23.384;2022-09-17T01:06:14;93775.03;;;17.88;89.66
56052;BME280;41919;42.648;23.384;2022-09-17T01:08:51;93786.66;;;17.76;90.23
56052;BME280;41919;42.648;23.384;2022-09-17T01:20:19;93724.81;;;17.67;92.43
56052;BME280;41919;42.648;23.384;2022-09-17T01:34:41;93750.25;;;17.32;95.36
56052;BME280;41919;42.648;23.384;2022-09-17T01:37:12;93730.44;;;17.45;93.75
56052;BME280;41919;42.648;23.384;2022-09-17T01:42:23;93739.38;;;17.39;92.69
56052;BME280;41919;42.648;23.384;2022-09-17T01:45:00;93758.16;;;17.27;93.99
56052;BME280;41919;42.648;23.384;2022-09-17T01:47:38;93721.97;;;17.28;93.85
56052;BME280;41919;42.648;23.384;2022-09-17T01:50:10;93729.66;;;17.19;94.74
56052;BME280;41919;42.648;23.384;2022-09-17T01:52:39;93686.38;;;16.99;94.81
56052;BME280;41919;42.648;23.384;2022-09-17T01:55:09;93708.78;;;16.97;94.51
56052;BME280;41919;42.648;23.384;2022-09-17T01:57:52;93691.31;;;16.70;96.27
56052;BME280;41919;42.648;23.384;2022-09-17T02:00:20;93609.28;;;16.20;97.40
56052;BME280;41919;42.648;23.384;2022-09-17T02:07:59;93721.41;;;16.79;98.71
56052;BME280;41919;42.648;23.384;2022-09-17T02:10:32;93695.84;;;16.85;98.71
56052;BME280;41919;42.648;23.384;2022-09-17T02:13:25;93682.41;;;16.87;99.25
56052;BME280;41919;42.648;23.384;2022-09-17T02:15:54;93636.72;;;16.65;97.07
56052;BME280;41919;42.648;23.384;2022-09-17T02:18:26;93648.63;;;16.89;97.66
56052;BME280;41919;42.648;23.384;2022-09-17T02:21:01;93641.75;;;16.93;96.96
56052;BME280;41919;42.648;23.384;2022-09-17T02:23:34;93582.88;;;17.02;96.37
56052;BME280;41919;42.648;23.384;2022-09-17T02:26:09;93657.59;;;17.03;95.79
56052;BME280;41919;42.648;23.384;2022-09-17T02:28:43;93522.78;;;16.43;98.75
56052;BME280;41919;42.648;23.384;2022-09-17T02:31:10;93602.44;;;17.01;94.91
56052;BME280;41919;42.648;23.384;2022-09-17T02:33:37;93552.06;;;16.88;95.69
56052;BME280;41919;42.648;23.384;2022-09-17T02:36:04;93521.44;;;16.76;96.22
56052;BME280;41919;42.648;23.384;2022-09-17T02:38:30;93577.63;;;16.92;97.83
56052;BME280;41919;42.648;23.384;2022-09-17T02:41:15;93595.84;;;16.83;98.53
56052;BME280;41919;42.648;23.384;2022-09-17T02:52:20;93610.28;;;17.27;93.20
56052;BME280;41919;42.648;23.384;2022-09-17T02:55:29;93633.78;;;17.23;91.39
56052;BME280;41919;42.648;23.384;2022-09-17T02:57:54;93630.28;;;17.54;91.02
56052;BME280;41919;42.648;23.384;2022-09-17T03:00:24;93628.38;;;17.70;88.63
56052;BME280;41919;42.648;23.384;2022-09-17T03:03:00;93613.59;;;17.63;88.68
56052;BME280;41919;42.648;23.384;2022-09-17T03:05:28;93614.13;;;17.71;88.94
56052;BME280;41919;42.648;23.384;2022-09-17T03:07:55;93600.44;;;17.48;90.08
56052;BME280;41919;42.648;23.384;2022-09-17T03:10:22;93536.72;;;17.05;91.21
56052;BME280;41919;42.648;23.384;2022-09-17T03:12:47;93570.88;;;17.41;90.98
56052;BME280;41919;42.648;23.384;2022-09-17T03:15:12;93542.97;;;17.24;91.09
56052;BME280;41919;42.648;23.384;2022-09-17T03:17:38;93587.50;;;17.47;91.25
56052;BME280;41919;42.648;23.384;2022-09-17T03:20:04;93602.53;;;17.56;90.87
56052;BME280;41919;42.648;23.384;2022-09-17T03:22:30;93530.28;;;17.27;90.88
56052;BME280;41919;42.648;23.384;2022-09-17T03:24:55;93527.09;;;17.35;89.56
56052;BME280;41919;42.648;23.384;2022-09-17T03:27:20;93526.88;;;17.26;89.92
56052;BME280;41919;42.648;23.384;2022-09-17T03:29:46;93586.66;;;17.61;89.68
56052;BME280;41919;42.648;23.384;2022-09-17T03:32:11;93594.25;;;17.78;88.83
56052;BME280;41919;42.648;23.384;2022-09-17T03:34:37;93527.59;;;17.37;87.86
56052;BME280;41919;42.648;23.384;2022-09-17T03:37:02;93535.53;;;17.37;87.42
56052;BME280;41919;42.648;23.384;2022-09-17T03:39:28;93579.75;;;17.76;87.74
56052;BME280;41919;42.648;23.384;2022-09-17T03:41:54;93540.00;;;17.41;86.34
56052;BME280;41919;42.648;23.384;2022-09-17T03:44:19;93569.69;;;17.78;85.50
56052;BME280;41919;42.648;23.384;2022-09-17T03:46:47;93502.22;;;17.46;84.51
56052;BME280;41919;42.648;23.384;2022-09-17T03:49:12;93492.84;;;17.69;83.41
56052;BME280;41919;42.648;23.384;2022-09-17T03:51:38;93547.31;;;18.10;84.19
56052;BME280;41919;42.648;23.384;2022-09-17T03:54:03;93552.59;;;18.10;84.62
56052;BME280;41919;42.648;23.384;2022-09-17T03:56:28;93556.00;;;18.15;84.51
56052;BME280;41919;42.648;23.384;2022-09-17T03:59:00;93553.56;;;18.24;84.49
56052;BME280;41919;42.648;23.384;2022-09-17T04:01:26;93512.44;;;18.08;83.59
56052;BME280;41919;42.648;23.384;2022-09-17T04:03:52;93423.50;;;17.43;82.81
56052;BME280;41919;42.648;23.384;2022-09-17T04:06:18;93518.06;;;17.96;83.04
56052;BME280;41919;42.648;23.384;2022-09-17T04:08:43;93548.81;;;18.21;82.51
56052;BME280;41919;42.648;23.384;2022-09-17T04:11:09;93581.09;;;18.57;81.71
56052;BME280;41919;42.648;23.384;2022-09-17T04:13:34;93519.63;;;18.36;79.99
56052;BME280;41919;42.648;23.384;2022-09-17T04:16:00;93558.63;;;18.55;78.60
56052;BME280;41919;42.648;23.384;2022-09-17T04:18:25;93568.19;;;18.51;78.42
56052;BME280;41919;42.648;23.384;2022-09-17T04:20:51;93589.56;;;18.89;78.59
56052;BME280;41919;42.648;23.384;2022-09-17T04:23:17;93598.22;;;18.65;78.77
56052;BME280;41919;42.648;23.384;2022-09-17T04:25:42;93581.66;;;18.54;79.23
56052;BME280;41919;42.648;23.384;2022-09-17T04:28:08;93671.63;;;18.89;78.82
56052;BME280;41919;42.648;23.384;2022-09-17T04:30:33;93604.13;;;18.57;79.40
56052;BME280;41919;42.648;23.384;2022-09-17T04:32:59;93680.06;;;18.96;79.09
56052;BME280;41919;42.648;23.384;2022-09-17T04:35:24;93684.69;;;18.75;81.29
56052;BME280;41919;42.648;23.384;2022-09-17T04:37:54;93615.56;;;18.47;80.84
56052;BME280;41919;42.648;23.384;2022-09-17T04:40:21;93696.56;;;18.83;80.88
56052;BME280;41919;42.648;23.384;2022-09-17T04:42:47;93634.53;;;18.59;80.37
56052;BME280;41919;42.648;23.384;2022-09-17T04:45:13;93704.53;;;18.77;81.64
56052;BME280;41919;42.648;23.384;2022-09-17T04:47:39;93694.09;;;18.57;82.02
56052;BME280;41919;42.648;23.384;2022-09-17T04:50:05;93737.00;;;18.44;83.77
56052;BME280;41919;42.648;23.384;2022-09-17T04:52:30;93679.50;;;18.10;83.60
56052;BME280;41919;42.648;23.384;2022-09-17T04:54:56;93718.78;;;18.37;84.60
56052;BME280;41919;42.648;23.384;2022-09-17T04:57:21;93689.06;;;18.00;84.99
56052;BME280;41919;42.648;23.384;2022-09-17T04:59:49;93691.19;;;18.03;84.62
56052;BME280;41919;42.648;23.384;2022-09-17T05:02:15;93708.06;;;18.13;85.55
56052;BME280;41919;42.648;23.384;2022-09-17T05:04:40;93694.56;;;18.14;85.56
56052;BME280;41919;42.648;23.384;2022-09-17T05:07:06;93687.38;;;18.25;85.61
56052;BME280;41919;42.648;23.384;2022-09-17T05:09:31;93738.97;;;18.72;84.13
56052;BME280;41919;42.648;23.384;2022-09-17T05:11:57;93671.41;;;18.40;84.57
56052;BME280;41919;42.648;23.384;2022-09-17T05:14:22;93659.81;;;18.31;83.59
56052;BME280;41919;42.648;23.384;2022-09-17T05:16:47;93680.34;;;18.50;83.42
56052;BME280;41919;42.648;23.384;2022-09-17T05:19:13;93731.50;;;18.85;83.32
56052;BME280;41919;42.648;23.384;2022-09-17T05:21:38;93679.72;;;18.68;82.89
56052;BME280;41919;42.648;23.384;2022-09-17T05:24:03;93641.53;;;18.40;84.38
56052;BME280;41919;42.648;23.384;2022-09-17T05:26:29;93710.56;;;18.88;84.11
56052;BME280;41919;42.648;23.384;2022-09-17T05:28:54;93640.16;;;18.48;83.63
56052;BME280;41919;42.648;23.384;2022-09-17T05:31:20;93698.69;;;18.86;83.58
56052;BME280;41919;42.648;23.384;2022-09-17T05:33:45;93694.69;;;18.44;85.85
56052;BME280;41919;42.648;23.384;2022-09-17T05:36:10;93703.22;;;18.35;87.15
56052;BME280;41919;42.648;23.384;2022-09-17T05:38:36;93726.19;;;18.40;86.99
56052;BME280;41919;42.648;23.384;2022-09-17T05:41:03;93685.13;;;17.93;88.17
56052;BME280;41919;42.648;23.384;2022-09-17T05:43:30;93678.31;;;17.71;88.90
56052;BME280;41919;42.648;23.384;2022-09-17T05:46:00;93664.63;;;17.49;90.48
56052;BME280;41919;42.648;23.384;2022-09-17T05:48:25;93724.56;;;17.84;91.70
56052;BME280;41919;42.648;23.384;2022-09-17T05:50:51;93705.56;;;17.61;91.53
56052;BME280;41919;42.648;23.384;2022-09-17T05:53:19;93726.44;;;17.68;92.56
56052;BME280;41919;42.648;23.384;2022-09-17T05:55:44;93692.88;;;17.58;92.95
56052;BME280;41919;42.648;23.384;2022-09-17T05:58:19;93657.78;;;17.53;92.21
56052;BME280;41919;42.648;23.384;2022-09-17T06:00:45;93691.50;;;17.92;91.14
56052;BME280;41919;42.648;23.384;2022-09-17T06:03:14;93668.50;;;17.92;89.27
56052;BME280;41919;42.648;23.384;2022-09-17T06:05:40;93672.66;;;18.09;88.61
56052;BME280;41919;42.648;23.384;2022-09-17T06:08:06;93729.34;;;18.42;88.37
56052;BME280;41919;42.648;23.384;2022-09-17T06:10:35;93673.81;;;17.77;89.64
56052;BME280;41919;42.648;23.384;2022-09-17T06:13:00;93674.84;;;17.81;90.11
56052;BME280;41919;42.648;23.384;2022-09-17T06:15:26;93703.13;;;17.91;89.79
56052;BME280;41919;42.648;23.384;2022-09-17T06:17:52;93744.31;;;18.07;90.56
56052;BME280;41919;42.648;23.384;2022-09-17T06:20:18;93682.59;;;17.52;91.15
56052;BME280;41919;42.648;23.384;2022-09-17T06:22:44;93745.16;;;17.87;91.13
56052;BME280;41919;42.648;23.384;2022-09-17T06:25:09;93749.38;;;17.78;90.72
56052;BME280;41919;42.648;23.384;2022-09-17T06:27:35;93751.00;;;17.69;91.40
56052;BME280;41919;42.648;23.384;2022-09-17T06:30:01;93738.06;;;17.57;92.11
56052;BME280;41919;42.648;23.384;2022-09-17T06:32:27;93748.34;;;17.58;93.45
56052;BME280;41919;42.648;23.384;2022-09-17T06:34:53;93632.75;;;16.99;92.59
56052;BME280;41919;42.648;23.384;2022-09-17T06:37:20;93791.63;;;18.09;91.41
56052;BME280;41919;42.648;23.384;2022-09-17T06:39:45;93744.63;;;17.85;91.27
56052;BME280;41919;42.648;23.384;2022-09-17T06:42:11;93824.31;;;18.38;91.37
56052;BME280;41919;42.648;23.384;2022-09-17T06:44:36;93768.38;;;18.06;91.46
56052;BME280;41919;42.648;23.384;2022-09-17T06:47:02;93802.63;;;18.41;90.98
56052;BME280;41919;42.648;23.384;2022-09-17T06:49:28;93788.78;;;18.60;90.07
56052;BME280;41919;42.648;23.384;2022-09-17T06:51:55;93775.78;;;18.69;89.34
56052;BME280;41919;42.648;23.384;2022-09-17T06:54:20;93777.47;;;18.49;90.39
56052;BME280;41919;42.648;23.384;2022-09-17T06:56:46;93783.03;;;18.48;90.96
56052;BME280;41919;42.648;23.384;2022-09-17T06:59:12;93732.38;;;18.20;91.56
56052;BME280;41919;42.648;23.384;2022-09-17T07:01:37;93755.44;;;18.59;90.78
56052;BME280;41919;42.648;23.384;2022-09-17T07:04:02;93748.63;;;18.48;90.31
56052;BME280;41919;42.648;23.384;2022-09-17T07:06:28;93740.50;;;18.34;90.44
56052;BME280;41919;42.648;23.384;2022-09-17T07:08:53;93681.69;;;17.97;92.00
56052;BME280;41919;42.648;23.384;2022-09-17T07:11:19;93742.13;;;18.19;93.89
56052;BME280;41919;42.648;23.384;2022-09-17T07:13:44;93718.06;;;18.26;94.33
56052;BME280;41919;42.648;23.384;2022-09-17T07:16:09;93705.91;;;18.70;92.39
56052;BME280;41919;42.648;23.384;2022-09-17T07:18:35;93639.81;;;18.99;87.65
56052;BME280;41919;42.648;23.384;2022-09-17T07:21:03;93704.03;;;19.97;83.59
56052;BME280;41919;42.648;23.384;2022-09-17T07:23:31;93627.16;;;20.54;78.48
56052;BME280;41919;42.648;23.384;2022-09-17T07:25:58;93689.28;;;21.57;74.42
56052;BME280;41919;42.648;23.384;2022-09-17T07:28:25;93691.06;;;21.62;73.06
56052;BME280;41919;42.648;23.384;2022-09-17T07:30:51;93625.69;;;21.88;70.15
56052;BME280;41919;42.648;23.384;2022-09-17T07:33:19;93691.41;;;24.19;63.36
56052;BME280;41919;42.648;23.384;2022-09-17T07:38:19;93638.16;;;25.83;54.76
56052;BME280;41919;42.648;23.384;2022-09-17T07:40:54;93659.31;;;26.86;51.95
56052;BME280;41919;42.648;23.384;2022-09-17T07:43:20;93693.03;;;28.58;48.34
56052;BME280;41919;42.648;23.384;2022-09-17T07:45:45;93680.56;;;27.79;49.56
56052;BME280;41919;42.648;23.384;2022-09-17T07:48:10;93686.00;;;25.20;55.99
56052;BME280;41919;42.648;23.384;2022-09-17T07:50:36;93687.50;;;23.85;60.35
56052;BME280;41919;42.648;23.384;2022-09-17T07:53:02;93679.06;;;23.29;62.09
56052;BME280;41919;42.648;23.384;2022-09-17T07:55:28;93674.59;;;23.16;63.25
56052;BME280;41919;42.648;23.384;2022-09-17T07:57:54;93649.88;;;23.01;64.19
56052;BME280;41919;42.648;23.384;2022-09-17T08:00:20;93662.38;;;23.01;64.34
56052;BME280;41919;42.648;23.384;2022-09-17T08:02:52;93620.72;;;22.60;64.19
56052;BME280;41919;42.648;23.384;2022-09-17T08:05:17;93611.16;;;22.59;64.38
56052;BME280;41919;42.648;23.384;2022-09-17T08:07:42;93679.25;;;22.74;65.01
56052;BME280;41919;42.648;23.384;2022-09-17T08:10:08;93624.59;;;21.89;67.56
56052;BME280;41919;42.648;23.384;2022-09-17T08:12:33;93593.16;;;21.91;66.05
56052;BME280;41919;42.648;23.384;2022-09-17T08:14:59;93585.50;;;21.90;65.72
56052;BME280;41919;42.648;23.384;2022-09-17T08:17:24;93612.22;;;22.21;65.81
56052;BME280;41919;42.648;23.384;2022-09-17T08:19:50;93645.72;;;22.50;65.79
56052;BME280;41919;42.648;23.384;2022-09-17T08:22:15;93647.53;;;22.63;65.62
56052;BME280;41919;42.648;23.384;2022-09-17T08:24:41;93517.84;;;22.05;63.32
56052;BME280;41919;42.648;23.384;2022-09-17T08:27:06;93651.81;;;23.09;63.59
56052;BME280;41919;42.648;23.384;2022-09-17T08:29:32;93642.75;;;22.97;63.88
56052;BME280;41919;42.648;23.384;2022-09-17T08:31:57;93626.41;;;23.03;62.32
56052;BME280;41919;42.648;23.384;2022-09-17T08:34:23;93640.50;;;23.35;61.97
56052;BME280;41919;42.648;23.384;2022-09-17T08:36:48;93605.47;;;22.97;62.22
56052;BME280;41919;42.648;23.384;2022-09-17T08:39:13;93635.72;;;23.15;61.71
56052;BME280;41919;42.648;23.384;2022-09-17T08:44:15;93653.16;;;23.21;61.10
56052;BME280;41919;42.648;23.384;2022-09-17T08:47:07;93592.00;;;22.70;61.97
56052;BME280;41919;42.648;23.384;2022-09-17T08:49:55;93632.75;;;23.02;61.84
56052;BME280;41919;42.648;23.384;2022-09-17T09:00:38;93593.84;;;21.42;66.09
56052;BME280;41919;42.648;23.384;2022-09-17T09:05:48;93634.16;;;21.77;66.30
56052;BME280;41919;42.648;23.384;2022-09-17T09:08:41;93655.53;;;21.58;67.37
56052;BME280;41919;42.648;23.384;2022-09-17T09:11:22;93599.19;;;20.95;68.21
56052;BME280;41919;42.648;23.384;2022-09-17T09:13:59;93669.94;;;21.05;70.46
56052;BME280;41919;42.648;23.384;2022-09-17T09:16:31;93644.59;;;20.80;70.68
56052;BME280;41919;42.648;23.384;2022-09-17T09:19:05;93664.09;;;20.89;72.47
56052;BME280;41919;42.648;23.384;2022-09-17T09:21:44;93640.88;;;20.81;73.48
56052;BME280;41919;42.648;23.384;2022-09-17T09:24:23;93674.97;;;21.06;72.90
56052;BME280;41919;42.648;23.384;2022-09-17T09:35:26;93684.13;;;20.81;73.54
56052;BME280;41919;42.648;23.384;2022-09-17T09:40:36;93698.97;;;20.63;76.49
56052;BME280;41919;42.648;23.384;2022-09-17T09:43:18;93677.00;;;20.39;76.65
56052;BME280;41919;42.648;23.384;2022-09-17T09:48:36;93727.53;;;20.90;79.40
56052;BME280;41919;42.648;23.384;2022-09-17T09:59:11;93738.22;;;21.04;79.47
56052;BME280;41919;42.648;23.384;2022-09-17T10:01:41;93748.97;;;21.13;77.45
56052;BME280;41919;42.648;23.384;2022-09-17T10:04:27;93729.53;;;21.18;79.47
56052;BME280;41919;42.648;23.384;2022-09-17T10:06:58;93729.09;;;21.10;80.57
56052;BME280;41919;42.648;23.384;2022-09-17T10:09:24;93654.69;;;20.59;81.12
56052;BME280;41919;42.648;23.384;2022-09-17T10:14:34;93610.75;;;20.33;81.64
56052;BME280;41919;42.648;23.384;2022-09-17T10:19:39;93648.38;;;20.16;85.80
56052;BME280;41919;42.648;23.384;2022-09-17T10:24:51;93639.38;;;19.93;84.12
56052;BME280;41919;42.648;23.384;2022-09-17T10:27:18;93628.53;;;19.90;85.40
56052;BME280;41919;42.648;23.384;2022-09-17T10:29:47;93599.94;;;19.63;86.93
56052;BME280;41919;42.648;23.384;2022-09-17T10:32:18;93535.78;;;18.98;89.59
56052;BME280;41919;42.648;23.384;2022-09-17T10:34:58;93612.28;;;19.24;89.89
56052;BME280;41919;42.648;23.384;2022-09-17T10:37:34;93628.97;;;19.25;89.53
56052;BME280;41919;42.648;23.384;2022-09-17T10:40:00;93562.31;;;18.88;89.62
56052;BME280;41919;42.648;23.384;2022-09-17T10:42:25;93611.81;;;19.17;91.24
56052;BME280;41919;42.648;23.384;2022-09-17T10:44:57;93573.50;;;19.09;91.02
56052;BME280;41919;42.648;23.384;2022-09-17T10:47:28;93578.25;;;19.12;91.86
56052;BME280;41919;42.648;23.384;2022-09-17T10:49:57;93500.31;;;18.65;93.55
56052;BME280;41919;42.648;23.384;2022-09-17T10:52:31;93576.03;;;18.95;94.56
56052;BME280;41919;42.648;23.384;2022-09-17T11:03:23;93471.50;;;18.64;90.22
56052;BME280;41919;42.648;23.384;2022-09-17T11:08:40;93519.66;;;19.19;86.81
56052;BME280;41919;42.648;23.384;2022-09-17T11:11:38;93532.38;;;19.41;84.19
56052;BME280;41919;42.648;23.384;2022-09-17T11:25:05;93567.44;;;20.71;76.49
56052;BME280;41919;42.648;23.384;2022-09-17T11:27:40;93570.66;;;20.87;73.23
56052;BME280;41919;42.648;23.384;2022-09-17T11:30:21;93518.31;;;20.73;71.59
56052;BME280;41919;42.648;23.384;2022-09-17T11:33:27;93592.16;;;21.18;68.79
56052;BME280;41919;42.648;23.384;2022-09-17T11:35:58;93598.84;;;21.15;75.95
56052;BME280;41919;42.648;23.384;2022-09-17T11:38:39;93558.28;;;20.63;79.95
56052;BME280;41919;42.648;23.384;2022-09-17T11:41:15;93599.75;;;20.92;81.04
56052;BME280;41919;42.648;23.384;2022-09-17T11:44:09;93619.22;;;20.87;81.26
56052;BME280;41919;42.648;23.384;2022-09-17T11:46:47;93605.44;;;20.71;83.18
56052;BME280;41919;42.648;23.384;2022-09-17T11:52:07;93594.94;;;20.61;82.38
56052;BME280;41919;42.648;23.384;2022-09-17T11:54:58;93587.63;;;20.53;83.22
56052;BME280;41919;42.648;23.384;2022-09-17T11:57:31;93573.44;;;20.44;82.39
56052;BME280;41919;42.648;23.384;2022-09-17T12:00:18;93559.31;;;20.48;81.42
56052;BME280;41919;42.648;23.384;2022-09-17T12:10:38;93592.38;;;20.37;81.41
56052;BME280;41919;42.648;23.384;2022-09-17T12:15:37;93522.22;;;19.91;82.72
56052;BME280;41919;42.648;23.384;2022-09-17T12:20:52;93581.13;;;20.07;81.33
56052;BME280;41919;42.648;23.384;2022-09-17T12:23:30;93584.56;;;20.08;83.12
56052;BME280;41919;42.648;23.384;2022-09-17T12:26:48;93513.81;;;19.84;84.25
56052;BME280;41919;42.648;23.384;2022-09-17T12:28:52;93583.75;;;20.45;81.71
56052;BME280;41919;42.648;23.384;2022-09-17T12:31:50;93565.81;;;20.56;81.43
56052;BME280;41919;42.648;23.384;2022-09-17T12:34:45;93565.22;;;20.59;82.76
56052;BME280;41919;42.648;23.384;2022-09-17T12:50:28;93545.28;;;19.91;84.22
56052;BME280;41919;42.648;23.384;2022-09-17T12:53:20;93514.78;;;19.50;88.05
56052;BME280;41919;42.648;23.384;2022-09-17T13:00:54;93541.47;;;19.35;94.78
56052;BME280;41919;42.648;23.384;2022-09-17T13:03:30;93532.47;;;19.31;93.94
56052;BME280;41919;42.648;23.384;2022-09-17T13:11:33;93527.00;;;19.27;90.64
56052;BME280;41919;42.648;23.384;2022-09-17T13:22:00;93467.91;;;19.27;80.62
56052;BME280;41919;42.648;23.384;2022-09-17T13:24:29;93527.75;;;19.71;81.11
56052;BME280;41919;42.648;23.384;2022-09-17T13:26:59;93519.28;;;19.74;83.84
56052;BME280;41919;42.648;23.384;2022-09-17T13:40:34;93433.44;;;19.89;83.49
56052;BME280;41919;42.648;23.384;2022-09-17T13:45:31;93463.63;;;19.69;85.05
56052;BME280;41919;42.648;23.384;2022-09-17T13:48:07;93462.13;;;19.44;83.18
56052;BME280;41919;42.648;23.384;2022-09-17T14:13:45;93393.81;;;19.59;84.19
56052;BME280;41919;42.648;23.384;2022-09-17T14:21:44;93421.81;;;19.66;81.27
56052;BME280;41919;42.648;23.384;2022-09-17T14:32:31;93361.44;;;18.87;82.54
56052;BME280;41919;42.648;23.384;2022-09-17T14:35:00;93359.66;;;18.82;82.54
56052;BME280;41919;42.648;23.384;2022-09-17T14:37:27;93400.97;;;19.21;83.29
56052;BME280;41919;42.648;23.384;2022-09-17T14:39:52;93381.84;;;19.05;84.39
56052;BME280;41919;42.648;23.384;2022-09-17T14:42:22;93321.41;;;18.69;85.62
56052;BME280;41919;42.648;23.384;2022-09-17T14:44:55;93301.44;;;18.77;85.90
56052;BME280;41919;42.648;23.384;2022-09-17T14:47:22;93329.34;;;19.31;84.54
56052;BME280;41919;42.648;23.384;2022-09-17T14:49:48;93299.97;;;19.28;82.25
56052;BME280;41919;42.648;23.384;2022-09-17T14:52:29;93339.47;;;19.43;81.79
56052;BME280;41919;42.648;23.384;2022-09-17T14:57:49;93372.69;;;19.92;82.76
56052;BME280;41919;42.648;23.384;2022-09-17T15:00:18;93333.69;;;20.07;81.39
56052;BME280;41919;42.648;23.384;2022-09-17T15:02:49;93254.47;;;19.26;81.48
56052;BME280;41919;42.648;23.384;2022-09-17T15:05:25;93331.88;;;19.55;79.81
56052;BME280;41919;42.648;23.384;2022-09-17T15:08:12;93372.06;;;19.25;83.56
56052;BME280;41919;42.648;23.384;2022-09-17T15:13:15;93336.78;;;19.29;82.01
56052;BME280;41919;42.648;23.384;2022-09-17T15:15:55;93345.56;;;19.06;83.61
56052;BME280;41919;42.648;23.384;2022-09-17T15:18:30;93337.09;;;18.85;79.87
56052;BME280;41919;42.648;23.384;2022-09-17T15:20:57;93336.91;;;19.00;81.81
56052;BME280;41919;42.648;23.384;2022-09-17T15:23:26;93332.91;;;18.84;79.32
56052;BME280;41919;42.648;23.384;2022-09-17T15:25:55;93329.56;;;18.97;76.85
56052;BME280;41919;42.648;23.384;2022-09-17T15:28:29;93307.72;;;19.05;77.15
56052;BME280;41919;42.648;23.384;2022-09-17T15:30:58;93311.88;;;19.11;79.13
56052;BME280;41919;42.648;23.384;2022-09-17T15:33:24;93327.13;;;19.00;84.29
56052;BME280;41919;42.648;23.384;2022-09-17T15:38:27;93272.19;;;18.68;78.76
56052;BME280;41919;42.648;23.384;2022-09-17T15:40:52;93323.59;;;19.05;83.29
56052;BME280;41919;42.648;23.384;2022-09-17T15:43:32;93318.88;;;19.02;84.12
56052;BME280;41919;42.648;23.384;2022-09-17T15:46:29;93322.88;;;18.99;79.23
56052;BME280;41919;42.648;23.384;2022-09-17T15:49:03;93309.81;;;19.08;83.56
56052;BME280;41919;42.648;23.384;2022-09-17T15:51:33;93315.38;;;19.26;79.43
56052;BME280;41919;42.648;23.384;2022-09-17T15:54:00;93303.91;;;19.30;78.71
56052;BME280;41919;42.648;23.384;2022-09-17T15:56:32;93275.78;;;19.15;80.00
56052;BME280;41919;42.648;23.384;2022-09-17T15:59:00;93275.25;;;19.32;80.85
56052;BME280;41919;42.648;23.384;2022-09-17T16:04:16;93320.34;;;19.46;79.33
56052;BME280;41919;42.648;23.384;2022-09-17T16:09:40;93300.84;;;19.75;80.14
56052;BME280;41919;42.648;23.384;2022-09-17T16:12:06;93284.00;;;19.98;77.05
56052;BME280;41919;42.648;23.384;2022-09-17T16:14:33;93253.63;;;19.77;76.55
56052;BME280;41919;42.648;23.384;2022-09-17T16:16:58;93267.59;;;20.10;76.62
56052;BME280;41919;42.648;23.384;2022-09-17T16:19:32;93256.00;;;19.92;75.33
56052;BME280;41919;42.648;23.384;2022-09-17T16:21:57;93253.66;;;19.58;79.73
56052;BME280;41919;42.648;23.384;2022-09-17T16:24:23;93301.97;;;20.02;78.40
56052;BME280;41919;42.648;23.384;2022-09-17T16:26:48;93298.53;;;20.15;76.51
56052;BME280;41919;42.648;23.384;2022-09-17T16:29:15;93265.53;;;19.93;75.94
56052;BME280;41919;42.648;23.384;2022-09-17T16:31:41;93259.44;;;20.21;73.63
56052;BME280;41919;42.648;23.384;2022-09-17T16:34:08;93197.88;;;20.10;69.22
56052;BME280;41919;42.648;23.384;2022-09-17T16:36:34;93267.97;;;20.59;71.26
56052;BME280;41919;42.648;23.384;2022-09-17T16:39:00;93260.75;;;20.23;71.14
56052;BME280;41919;42.648;23.384;2022-09-17T16:41:25;93231.94;;;20.03;67.48